createdAt,value
2018-05-04T00:01:25.998Z,13.4
2018-05-04T00:11:26.790Z,10.0
2018-05-04T00:21:26.704Z,14.4
2018-05-04T00:31:27.081Z,15.7
2018-05-04T00:41:25.762Z,13.0
2018-05-04T00:51:28.091Z,16.2
2018-05-04T01:01:27.433Z,15.4
2018-05-04T01:11:26.444Z,17.8
2018-05-04T01:21:26.892Z,15.2
2018-05-04T01:31:25.941Z,16.2
2018-05-04T01:41:28.351Z,16.8
2018-05-04T01:51:25.909Z,20.0
2018-05-04T02:01:26.647Z,14.1
2018-05-04T02:11:27.688Z,21.3
2018-05-04T02:21:25.593Z,17.2
2018-05-04T02:31:26.743Z,16.1
2018-05-04T02:41:25.833Z,15.7
2018-05-04T02:51:26.889Z,12.2
2018-05-04T03:01:26.947Z,16.0
2018-05-04T03:11:26.534Z,16.5
2018-05-04T03:21:26.127Z,14.9
2018-05-04T03:31:27.751Z,18.6
2018-05-04T03:41:26.397Z,18.1
2018-05-04T03:51:27.082Z,26.6
2018-05-04T04:01:26.081Z,22.9
2018-05-04T04:11:27.016Z,21.4
2018-05-04T04:21:27.513Z,25.7
2018-05-04T04:31:27.179Z,23.9
2018-05-04T04:41:27.030Z,21.0
2018-05-04T04:51:26.873Z,23.2
2018-05-04T05:01:26.636Z,17.6
2018-05-04T05:11:26.798Z,14.6
2018-05-04T05:21:31.055Z,11.0
2018-05-04T05:31:27.626Z,13.1
2018-05-04T05:41:28.413Z,11.9
2018-05-04T05:51:27.022Z,13.7
2018-05-04T06:01:29.270Z,17.7
2018-05-04T06:11:27.296Z,12.4
2018-05-04T06:21:45.106Z,13.1
2018-05-04T06:31:27.127Z,15.2
2018-05-04T06:41:27.285Z,18.7
2018-05-04T06:51:26.652Z,8.9
2018-05-04T07:01:26.898Z,12.4
2018-05-04T07:11:27.685Z,9.6
2018-05-04T07:21:27.919Z,10.0
2018-05-04T07:31:25.569Z,10.8
2018-05-04T07:41:28.424Z,12.5
2018-05-04T07:51:26.437Z,12.1
2018-05-04T08:01:45.938Z,10.4
2018-05-04T08:11:25.651Z,12.3
2018-05-04T08:21:26.294Z,13.5
2018-05-04T08:31:27.190Z,10.6
2018-05-04T08:41:32.736Z,13.7
2018-05-04T08:51:30.340Z,6.4
2018-05-04T09:01:27.065Z,8.5
2018-05-04T09:11:28.473Z,12.8
2018-05-04T09:21:30.284Z,10.6
2018-05-04T09:31:27.077Z,10.0
2018-05-04T09:41:26.947Z,7.0
2018-05-04T09:51:26.730Z,9.1
2018-05-04T10:01:27.166Z,8.9
2018-05-04T10:11:27.361Z,11.0
2018-05-04T10:21:26.373Z,9.6
2018-05-04T10:31:26.315Z,8.6
2018-05-04T10:41:26.305Z,12.5
2018-05-04T10:51:26.735Z,11.4
2018-05-04T11:01:25.712Z,7.6
2018-05-04T11:11:26.830Z,7.0
2018-05-04T11:21:28.112Z,8.7
2018-05-04T11:31:26.393Z,10.6
2018-05-04T11:41:26.132Z,8.1
2018-05-04T11:51:27.020Z,7.3
2018-05-04T12:01:31.668Z,7.0
2018-05-04T12:11:30.204Z,5.9
2018-05-04T12:21:27.744Z,6.3
2018-05-04T12:31:32.141Z,12.9
2018-05-04T12:41:26.485Z,9.9
2018-05-04T12:51:34.110Z,11.5
2018-05-04T13:01:31.868Z,10.9
2018-05-04T13:11:32.375Z,7.2
2018-05-04T13:21:31.840Z,11.5
2018-05-04T13:31:31.336Z,5.6
2018-05-04T13:41:32.464Z,5.9
2018-05-04T13:51:27.336Z,7.8
2018-05-04T14:01:26.478Z,7.1
2018-05-04T14:11:27.420Z,6.4
2018-05-04T14:21:26.358Z,8.3
2018-05-04T14:31:27.674Z,8.9
2018-05-04T14:41:26.333Z,10.0
2018-05-04T14:51:26.865Z,6.0
2018-05-04T15:01:26.029Z,7.9
2018-05-04T15:11:25.928Z,8.8
2018-05-04T15:21:26.388Z,8.0
2018-05-04T15:31:26.646Z,10.2
2018-05-04T15:41:27.457Z,6.9
2018-05-04T15:51:26.236Z,8.5
2018-05-04T16:01:26.402Z,8.3
2018-05-04T16:11:26.261Z,9.5
2018-05-04T16:21:26.803Z,11.9
2018-05-04T16:31:26.151Z,12.2
2018-05-04T16:41:26.272Z,9.3
2018-05-04T16:51:26.021Z,6.7
2018-05-04T17:01:26.373Z,10.3
2018-05-04T17:11:27.451Z,10.8
2018-05-04T17:21:26.955Z,6.7
2018-05-04T17:31:26.033Z,8.0
2018-05-04T17:41:26.103Z,10.1
2018-05-04T17:51:26.353Z,6.8
2018-05-04T18:01:26.083Z,12.3
2018-05-04T18:11:26.132Z,10.2
2018-05-04T18:21:26.846Z,9.3
2018-05-04T18:31:31.331Z,13.5
2018-05-04T18:41:31.833Z,10.5
2018-05-04T19:22:18.472Z,11.5
2018-05-04T19:31:33.084Z,9.5
2018-05-04T19:41:31.385Z,11.3
2018-05-04T20:21:52.692Z,10.6
2018-05-04T20:32:02.810Z,10.4
2018-05-04T20:41:33.209Z,16.8
2018-05-04T20:51:33.345Z,11.5
2018-05-04T21:11:33.569Z,10.7
2018-05-04T21:21:32.263Z,11.6
2018-05-04T21:41:32.396Z,12.2
2018-05-04T21:51:31.218Z,12.4
2018-05-04T22:01:33.919Z,12.3
2018-05-04T22:11:45.010Z,13.0
2018-05-04T22:21:26.112Z,14.2
2018-05-04T22:31:25.841Z,18.2
2018-05-04T22:41:28.640Z,14.7
2018-05-04T22:51:27.496Z,12.9
2018-05-04T23:01:27.267Z,14.0
2018-05-04T23:11:27.303Z,13.9
2018-05-04T23:21:27.304Z,12.5
2018-05-04T23:31:27.580Z,15.0
2018-05-04T23:41:28.065Z,14.8
2018-05-04T23:51:25.807Z,16.8
